Time;durP1;ratioP1;P1;durP2;ratioP2;P2;SDS_P1;SDS_P2;PMS_P1;PMS_P2;Temp;Humidity;BMP_temperature;BMP_pressure;BME280_temperature;BME280_humidity;BME280_pressure;Samples;Min_cycle;Max_cycle;Signal;HPM_P1;HPM_P2
2023/09/21 00:01:48;;;;;;;;;;;;;;;;;;5053031;28;19993;-70
2023/09/21 00:04:14;;;;;;;;;;;;;;;;;;5053205;28;20033;-70
2023/09/21 00:06:40;;;;;;;;;;;;;;;;;;5052694;28;20044;-70
2023/09/21 00:09:05;;;;;;;;;;;;;;;;;;5052886;28;19985;-70
2023/09/21 00:11:31;;;;;;;;;;;;;;;;;;5052933;28;19982;-71
2023/09/21 00:13:57;;;;;;;;;;;;;;;;;;5052646;28;20014;-70
2023/09/21 00:16:27;;;;;;;;;;;;;;;;;;5052438;28;20016;-70
2023/09/21 00:18:53;;;;;;;;;;;;;;;;;;5052644;28;20016;-75
2023/09/21 00:21:19;;;;;;;;;;;;;;;;;;5051263;28;19986;-70
2023/09/21 00:23:47;;;;;;;;;;;;;;;;;;5052537;28;19981;-69
2023/09/21 00:26:14;;;;;;;;;;;;;;;;;;5052412;28;20032;-70
2023/09/21 00:28:40;;;;;;;;;;;;;;;;;;5052163;28;19990;-69
2023/09/21 00:31:06;;;;;;;;;;;;;;;;;;5052430;28;20073;-70
2023/09/21 00:33:32;;;;;;;;;;;;;;;;;;5052432;28;20120;-70
2023/09/21 00:35:58;;;;;;;;;;;;;;;;;;5052347;28;19986;-71
2023/09/21 00:38:24;;;;;;;;;;;;;;;;;;5052188;28;20029;-70
2023/09/21 00:40:50;;;;;;;;;;;;;;;;;;5051873;28;20036;-70
2023/09/21 00:43:17;;;;;;;;;;;;;;;;;;5052187;28;20407;-69
2023/09/21 00:45:43;;;;;;;;;;;;;;;;;;5052337;28;19994;-71
2023/09/21 00:48:11;;;;;;;;;;;;;;;;;;5052136;28;19982;-72
2023/09/21 00:50:37;;;;;;;;;;;;;;;;;;5052078;28;19989;-71
2023/09/21 00:53:05;;;;;;;;;;;;;;;;;;5049847;28;19990;-71
2023/09/21 00:55:31;;;;;;;;;;;;;;;;;;5052032;28;19986;-70
2023/09/21 00:57:57;;;;;;;;;;;;;;;;;;5051942;28;20061;-71
2023/09/21 01:00:25;;;;;;;;;;;;;;;;;;5052027;28;20069;-71
2023/09/21 01:02:51;;;;;;;;;;;;;;;;;;5051764;28;19986;-70
2023/09/21 01:05:18;;;;;;;;;;;;;;;;;;5051601;28;20031;-70
2023/09/21 01:07:44;;;;;;;;;;;;;;;;;;5051866;28;20077;-71
2023/09/21 01:10:11;;;;;;;;;;;;;;;;;;5051714;28;20040;-71
2023/09/21 01:12:38;;;;;;;;;;;;;;;;;;5051815;28;20032;-71
2023/09/21 01:15:04;;;;;;;;;;;;;;;;;;5051085;28;20466;-71
2023/09/21 01:17:30;;;;;;;;;;;;;;;;;;5050265;28;20047;-71
2023/09/21 01:19:57;;;;;;;;;;;;;;;;;;5051758;28;19997;-71
2023/09/21 01:22:23;;;;;;;;;;;;;;;;;;5051578;28;20057;-71
2023/09/21 01:24:49;;;;;;;;;;;;;;;;;;5051634;28;20107;-73
2023/09/21 01:27:17;;;;;;;;;;;;;;;;;;5051298;28;20454;-73
2023/09/21 01:29:44;;;;;;;;;;;;;;;;;;5051446;28;20489;-71
2023/09/21 01:32:10;;;;;;;;;;;;;;;;;;5051615;28;19986;-71
2023/09/21 01:34:36;;;;;;;;;;;;;;;;;;5051387;28;20017;-71
2023/09/21 01:37:02;;;;;;;;;;;;;;;;;;5051375;28;19986;-71
2023/09/21 01:39:29;;;;;;;;;;;;;;;;;;5051284;28;19993;-72
2023/09/21 01:41:55;;;;;;;;;;;;;;;;;;5051564;28;19982;-72
2023/09/21 01:44:21;;;;;;;;;;;;;;;;;;5051483;28;20021;-71
2023/09/21 01:46:48;;;;;;;;;;;;;;;;;;5051318;28;20032;-71
2023/09/21 01:49:14;;;;;;;;;;;;;;;;;;5049799;28;19990;-71
2023/09/21 01:51:40;;;;;;;;;;;;;;;;;;5051305;28;19986;-70
2023/09/21 01:54:07;;;;;;;;;;;;;;;;;;5051360;28;20020;-71
2023/09/21 01:56:33;;;;;;;;;;;;;;;;;;5051495;28;20057;-71
2023/09/21 01:59:00;;;;;;;;;;;;;;;;;;5051308;28;20005;-71
2023/09/21 02:01:26;;;;;;;;;;;;;;;;;;5050901;28;20339;-71
2023/09/21 02:03:56;;;;;;;;;;;;;;;;;;5051228;28;20420;-71
2023/09/21 02:06:22;;;;;;;;;;;;;;;;;;5054195;28;19997;-71
2023/09/21 02:08:49;;;;;;;;;;;;;;;;;;5055215;28;20008;-71
2023/09/21 02:11:15;;;;;;;;;;;;;;;;;;5055034;28;20565;-69
2023/09/21 02:13:41;;;;;;;;;;;;;;;;;;5055020;28;20006;-72
2023/09/21 02:16:07;;;;;;;;;;;;;;;;;;5054900;28;19990;-71
2023/09/21 02:18:34;;;;;;;;;;;;;;;;;;5055095;28;20496;-71
2023/09/21 02:21:00;;;;;;;;;;;;;;;;;;5055363;28;20027;-72
2023/09/21 02:23:25;;;;;;;;;;;;;;;;;;5055052;28;20085;-71
2023/09/21 02:25:55;;;;;;;;;;;;;;;;;;5054880;28;19989;-71
2023/09/21 02:28:22;;;;;;;;;;;;;;;;;;5053448;28;19986;-71
2023/09/21 02:30:48;;;;;;;;;;;;;;;;;;5055086;28;20072;-71
2023/09/21 02:33:18;;;;;;;;;;;;;;;;;;5054661;28;20573;-72
2023/09/21 02:35:44;;;;;;;;;;;;;;;;;;5054277;28;20452;-71
2023/09/21 02:38:11;;;;;;;;;;;;;;;;;;5054936;28;19992;-72
2023/09/21 02:40:38;;;;;;;;;;;;;;;;;;5054802;28;20021;-71
2023/09/21 02:43:04;;;;;;;;;;;;;;;;;;5054480;28;20052;-71
2023/09/21 02:45:31;;;;;;;;;;;;;;;;;;5053268;28;20025;-72
2023/09/21 02:48:00;;;;;;;;;;;;;;;;;;5053872;28;19993;-72
2023/09/21 02:50:27;;;;;;;;;;;;;;;;;;5054719;28;19990;-72
2023/09/21 02:52:54;;;;;;;;;;;;;;;;;;5054473;28;20453;-72
2023/09/21 02:55:20;;;;;;;;;;;;;;;;;;5054552;28;19990;-72
2023/09/21 02:57:47;;;;;;;;;;;;;;;;;;5054009;28;20004;-72
2023/09/21 03:02:55;;;;;;;;;;;;;;;;;;5054699;28;19988;-71
2023/09/21 03:05:23;;;;;;;;;;;;;;;;;;5054169;28;20043;-72
2023/09/21 03:07:50;;;;;;;;;;;;;;;;;;5054262;28;20335;-72
2023/09/21 03:10:17;;;;;;;;;;;;;;;;;;5053632;28;20077;-72
2023/09/21 03:12:43;;;;;;;;;;;;;;;;;;5054117;28;19992;-72
2023/09/21 03:15:30;;;;;;;;;;;;;;;;;;5053886;28;20010;-72
2023/09/21 03:17:55;;;;;;;;;;;;;;;;;;5053663;28;19986;-71
2023/09/21 03:20:34;;;;;;;;;;;;;;;;;;5053946;28;19989;-72
2023/09/21 03:23:04;;;;;;;;;;;;;;;;;;5053674;28;19986;-72
2023/09/21 03:25:32;;;;;;;;;;;;;;;;;;5053859;28;19993;-73
2023/09/21 03:27:58;;;;;;;;;;;;;;;;;;5054039;28;19989;-72
2023/09/21 03:30:24;;;;;;;;;;;;;;;;;;5053877;28;20059;-71
2023/09/21 03:32:50;;;;;;;;;;;;;;;;;;5053215;28;20075;-73
2023/09/21 03:35:16;;;;;;;;;;;;;;;;;;5053619;28;20040;-73
2023/09/21 03:37:45;;;;;;;;;;;;;;;;;;5053567;28;20005;-72
2023/09/21 03:40:11;;;;;;;;;;;;;;;;;;5052151;28;19990;-72
2023/09/21 03:42:37;;;;;;;;;;;;;;;;;;5053522;28;19990;-71
2023/09/21 03:45:03;;;;;;;;;;;;;;;;;;5053172;28;20362;-72
2023/09/21 03:47:29;;;;;;;;;;;;;;;;;;5053262;28;20523;-72
2023/09/21 03:49:56;;;;;;;;;;;;;;;;;;5053433;28;20072;-73
2023/09/21 03:52:22;;;;;;;;;;;;;;;;;;5053249;28;19993;-73
2023/09/21 03:54:48;;;;;;;;;;;;;;;;;;5052928;28;20429;-73
2023/09/21 03:57:17;;;;;;;;;;;;;;;;;;5052895;28;19990;-73
2023/09/21 03:59:46;;;;;;;;;;;;;;;;;;5053311;28;19985;-73
2023/09/21 04:02:12;;;;;;;;;;;;;;;;;;5052904;28;19986;-73
2023/09/21 04:04:38;;;;;;;;;;;;;;;;;;5053087;28;19985;-74
2023/09/21 04:07:05;;;;;;;;;;;;;;;;;;5052814;28;19990;-73
2023/09/21 04:09:31;;;;;;;;;;;;;;;;;;5052819;28;19990;-72
2023/09/21 04:11:57;;;;;;;;;;;;;;;;;;5053033;28;19986;-73
2023/09/21 04:14:24;;;;;;;;;;;;;;;;;;5053013;28;20075;-72
2023/09/21 04:16:50;;;;;;;;;;;;;;;;;;5052666;28;20387;-73
2023/09/21 04:19:16;;;;;;;;;;;;;;;;;;5052436;28;19992;-72
2023/09/21 04:21:42;;;;;;;;;;;;;;;;;;5052712;28;19993;-73
2023/09/21 04:24:09;;;;;;;;;;;;;;;;;;5052941;28;19997;-72
2023/09/21 04:26:35;;;;;;;;;;;;;;;;;;5052819;28;19993;-72
2023/09/21 04:29:03;;;;;;;;;;;;;;;;;;5051863;28;19986;-72
2023/09/21 04:31:29;;;;;;;;;;;;;;;;;;5052339;28;19986;-73
2023/09/21 04:33:55;;;;;;;;;;;;;;;;;;5052252;28;20049;-72
2023/09/21 04:36:21;;;;;;;;;;;;;;;;;;5052396;28;20028;-72
2023/09/21 04:38:47;;;;;;;;;;;;;;;;;;5052649;28;20017;-72
2023/09/21 04:41:15;;;;;;;;;;;;;;;;;;5052378;28;20563;-73
2023/09/21 04:43:41;;;;;;;;;;;;;;;;;;5051848;28;20022;-73
2023/09/21 04:46:06;;;;;;;;;;;;;;;;;;5052002;28;20078;-73
2023/09/21 04:48:33;;;;;;;;;;;;;;;;;;5052046;28;19982;-73
2023/09/21 04:50:59;;;;;;;;;;;;;;;;;;5052173;28;19986;-73
2023/09/21 04:53:27;;;;;;;;;;;;;;;;;;5051972;28;20021;-74
2023/09/21 04:55:53;;;;;;;;;;;;;;;;;;5051948;28;20080;-73
2023/09/21 04:58:20;;;;;;;;;;;;;;;;;;5052139;28;20124;-73
2023/09/21 05:00:49;;;;;;;;;;;;;;;;;;5050643;28;20125;-73
2023/09/21 05:03:15;;;;;;;;;;;;;;;;;;5052001;28;19993;-73
2023/09/21 05:05:41;;;;;;;;;;;;;;;;;;5051413;28;20006;-72
2023/09/21 05:08:09;;;;;;;;;;;;;;;;;;5051820;28;19982;-73
2023/09/21 05:10:35;;;;;;;;;;;;;;;;;;5052085;28;20096;-73
2023/09/21 05:13:02;;;;;;;;;;;;;;;;;;5052084;28;19990;-73
2023/09/21 05:15:28;;;;;;;;;;;;;;;;;;5051786;28;19986;-70
2023/09/21 05:17:54;;;;;;;;;;;;;;;;;;5049301;28;20398;-70
2023/09/21 05:20:20;;;;;;;;;;;;;;;;;;5051740;28;19986;-69
2023/09/21 05:22:47;;;;;;;;;;;;;;;;;;5043181;28;20032;-71
2023/09/21 05:25:13;;;;;;;;;;;;;;;;;;5048229;28;20072;-71
2023/09/21 05:27:40;;;;;;;;;;;;;;;;;;5051571;28;20446;-71
2023/09/21 05:30:08;;;;;;;;;;;;;;;;;;5051419;28;19993;-71
2023/09/21 05:32:34;;;;;;;;;;;;;;;;;;5040247;28;20037;-70
2023/09/21 05:35:00;;;;;;;;;;;;;;;;;;5047045;28;20047;-70
2023/09/21 05:37:26;;;;;;;;;;;;;;;;;;5045589;28;19990;-71
2023/09/21 05:39:52;;;;;;;;;;;;;;;;;;5047226;28;20017;-71
2023/09/21 05:42:18;;;;;;;;;;;;;;;;;;5044020;28;20033;-71
2023/09/21 05:44:44;;;;;;;;;;;;;;;;;;5050031;28;20072;-72
2023/09/21 05:47:10;;;;;;;;;;;;;;;;;;5050724;28;20084;-73
2023/09/21 05:49:37;;;;;;;;;;;;;;;;;;5049607;28;19986;-72
2023/09/21 05:52:08;;;;;;;;;;;;;;;;;;5049511;28;19982;-72
2023/09/21 05:54:35;;;;;;;;;;;;;;;;;;5046173;28;20013;-70
2023/09/21 05:57:03;;;;;;;;;;;;;;;;;;5029784;28;19990;-72
2023/09/21 05:59:31;;;;;;;;;;;;;;;;;;5029343;28;20028;-71
2023/09/21 06:01:57;;;;;;;;;;;;;;;;;;5029632;28;20357;-71
2023/09/21 06:04:24;;;;;;;;;;;;;;;;;;5033416;28;19997;-72
2023/09/21 06:06:51;;;;;;;;;;;;;;;;;;5031272;28;20028;-71
2023/09/21 06:09:21;;;;;;;;;;;;;;;;;;5031350;28;19982;-71
2023/09/21 06:11:48;;;;;;;;;;;;;;;;;;5032652;28;20139;-70
2023/09/21 06:14:15;;;;;;;;;;;;;;;;;;5028889;28;20014;-71
2023/09/21 06:16:43;;;;;;;;;;;;;;;;;;5028803;28;19986;-71
2023/09/21 06:19:11;;;;;;;;;;;;;;;;;;5041555;28;20077;-71
2023/09/21 06:21:37;;;;;;;;;;;;;;;;;;5049288;28;19986;-71
2023/09/21 06:24:04;;;;;;;;;;;;;;;;;;5047214;28;19990;-71
2023/09/21 06:26:30;;;;;;;;;;;;;;;;;;5049104;28;19996;-70
2023/09/21 06:28:56;;;;;;;;;;;;;;;;;;5032511;28;19990;-70
2023/09/21 06:31:22;;;;;;;;;;;;;;;;;;5050215;28;20450;-71
2023/09/21 06:33:48;;;;;;;;;;;;;;;;;;5044813;28;20006;-72
2023/09/21 06:36:20;;;;;;;;;;;;;;;;;;5030809;28;19997;-70
2023/09/21 06:38:46;;;;;;;;;;;;;;;;;;5030734;28;20096;-70
2023/09/21 06:41:12;;;;;;;;;;;;;;;;;;5031688;28;20040;-71
2023/09/21 06:43:39;;;;;;;;;;;;;;;;;;5030293;28;20022;-71
2023/09/21 06:46:05;;;;;;;;;;;;;;;;;;5039086;28;19990;-72
2023/09/21 06:48:31;;;;;;;;;;;;;;;;;;5030713;28;20012;-70
2023/09/21 06:50:57;;;;;;;;;;;;;;;;;;5032967;28;19990;-71
2023/09/21 06:53:24;;;;;;;;;;;;;;;;;;5034547;28;20042;-70
2023/09/21 06:55:49;;;;;;;;;;;;;;;;;;5033834;28;20105;-71
2023/09/21 06:58:15;;;;;;;;;;;;;;;;;;5053790;28;20001;-71
2023/09/21 07:00:42;;;;;;;;;;;;;;;;;;5053956;28;19981;-70
2023/09/21 07:03:08;;;;;;;;;;;;;;;;;;5049541;28;20016;-72
2023/09/21 07:05:34;;;;;;;;;;;;;;;;;;5041992;28;20027;-70
2023/09/21 07:08:00;;;;;;;;;;;;;;;;;;5053884;28;20080;-71
2023/09/21 07:10:26;;;;;;;;;;;;;;;;;;5050476;28;19990;-70
2023/09/21 07:12:53;;;;;;;;;;;;;;;;;;5035351;28;19996;-70
2023/09/21 07:15:19;;;;;;;;;;;;;;;;;;5034066;28;20056;-69
2023/09/21 07:17:46;;;;;;;;;;;;;;;;;;5032342;28;20571;-70
2023/09/21 07:20:12;;;;;;;;;;;;;;;;;;5033654;28;20443;-72
2023/09/21 07:22:39;;;;;;;;;;;;;;;;;;5045993;28;20001;-71
2023/09/21 07:25:05;;;;;;;;;;;;;;;;;;5053136;28;19994;-71
2023/09/21 07:27:32;;;;;;;;;;;;;;;;;;5053556;28;20032;-71
2023/09/21 07:29:58;;;;;;;;;;;;;;;;;;5053800;28;19986;-71
2023/09/21 07:32:25;;;;;;;;;;;;;;;;;;5053566;28;20009;-71
2023/09/21 07:34:51;;;;;;;;;;;;;;;;;;5053714;28;20108;-71
2023/09/21 07:37:16;;;;;;;;;;;;;;;;;;5053530;28;20072;-69
2023/09/21 07:39:42;;;;;;;;;;;;;;;;;;5052447;28;19992;-70
2023/09/21 07:42:09;;;;;;;;;;;;;;;;;;5053603;28;19986;-71
2023/09/21 07:44:35;;;;;;;;;;;;;;;;;;5053073;28;20025;-71
2023/09/21 07:47:02;;;;;;;;;;;;;;;;;;5053345;28;19982;-71
2023/09/21 07:49:28;;;;;;;;;;;;;;;;;;5053306;28;20076;-71
2023/09/21 07:51:57;;;;;;;;;;;;;;;;;;5053449;28;20037;-72
2023/09/21 07:54:23;;;;;;;;;;;;;;;;;;5053065;28;20031;-71
2023/09/21 07:56:49;;;;;;;;;;;;;;;;;;5051986;28;20012;-71
2023/09/21 07:59:15;;;;;;;;;;;;;;;;;;5053381;28;20346;-74
2023/09/21 08:01:41;;;;;;;;;;;;;;;;;;5051882;28;20339;-72
2023/09/21 08:04:07;;;;;;;;;;;;;;;;;;5053151;28;20036;-72
2023/09/21 08:06:33;;;;;;;;;;;;;;;;;;5052825;28;20002;-72
2023/09/21 08:08:59;;;;;;;;;;;;;;;;;;5052925;28;20044;-72
2023/09/21 08:11:25;;;;;;;;;;;;;;;;;;5046576;28;19990;-72
2023/09/21 08:13:51;;;;;;;;;;;;;;;;;;5046019;28;20021;-71
2023/09/21 08:16:17;;;;;;;;;;;;;;;;;;5036735;28;20013;-72
2023/09/21 08:18:44;;;;;;;;;;;;;;;;;;5052482;28;19985;-72
2023/09/21 08:21:10;;;;;;;;;;;;;;;;;;5052908;28;19993;-73
2023/09/21 08:23:36;;;;;;;;;;;;;;;;;;5052739;28;19990;-73
2023/09/21 08:26:02;;;;;;;;;;;;;;;;;;5045855;28;19989;-73
2023/09/21 08:28:29;;;;;;;;;;;;;;;;;;5039505;28;19986;-73
2023/09/21 08:30:55;;;;;;;;;;;;;;;;;;5033688;28;20028;-73
2023/09/21 08:33:21;;;;;;;;;;;;;;;;;;5043268;28;20378;-73
2023/09/21 08:35:46;;;;;;;;;;;;;;;;;;5052627;28;20072;-73
2023/09/21 08:38:12;;;;;;;;;;;;;;;;;;5052606;28;19990;-74
2023/09/21 08:40:38;;;;;;;;;;;;;;;;;;5046291;28;20020;-74
2023/09/21 08:43:04;;;;;;;;;;;;;;;;;;5036433;28;20063;-74
2023/09/21 08:45:33;;;;;;;;;;;;;;;;;;5050620;28;19998;-74
2023/09/21 08:47:59;;;;;;;;;;;;;;;;;;5042493;28;20011;-74
2023/09/21 08:50:25;;;;;;;;;;;;;;;;;;5052179;28;20444;-74
2023/09/21 08:52:53;;;;;;;;;;;;;;;;;;5041341;28;20720;-74
2023/09/21 08:55:19;;;;;;;;;;;;;;;;;;5032021;28;20018;-73
2023/09/21 08:57:45;;;;;;;;;;;;;;;;;;5032310;28;19992;-73
2023/09/21 09:00:11;;;;;;;;;;;;;;;;;;5031487;28;19990;-73
2023/09/21 09:02:37;;;;;;;;;;;;;;;;;;5051146;28;19996;-75
2023/09/21 09:05:04;;;;;;;;;;;;;;;;;;5042603;28;20006;-72
2023/09/21 09:07:30;;;;;;;;;;;;;;;;;;5038158;28;20081;-74
2023/09/21 09:09:56;;;;;;;;;;;;;;;;;;5049800;28;20140;-72
2023/09/21 09:12:22;;;;;;;;;;;;;;;;;;5051511;28;20407;-74
2023/09/21 09:14:48;;;;;;;;;;;;;;;;;;5051058;28;20014;-73
2023/09/21 09:17:14;;;;;;;;;;;;;;;;;;5034990;28;19993;-73
2023/09/21 09:19:40;;;;;;;;;;;;;;;;;;5040856;28;20376;-74
2023/09/21 09:22:06;;;;;;;;;;;;;;;;;;5032184;28;20453;-73
2023/09/21 09:24:33;;;;;;;;;;;;;;;;;;5049202;28;20076;-74
2023/09/21 09:27:00;;;;;;;;;;;;;;;;;;5051514;28;19990;-75
2023/09/21 09:29:26;;;;;;;;;;;;;;;;;;5050260;28;20135;-74
2023/09/21 09:31:52;;;;;;;;;;;;;;;;;;5049410;28;19994;-73
2023/09/21 09:34:18;;;;;;;;;;;;;;;;;;5039377;28;20076;-73
2023/09/21 09:36:45;;;;;;;;;;;;;;;;;;5044222;28;19986;-74
2023/09/21 09:39:14;;;;;;;;;;;;;;;;;;5040174;28;19993;-73
2023/09/21 09:41:40;;;;;;;;;;;;;;;;;;5049219;28;20031;-74
2023/09/21 09:44:06;;;;;;;;;;;;;;;;;;5034436;28;20017;-74
2023/09/21 09:46:33;;;;;;;;;;;;;;;;;;5034576;28;19990;-73
2023/09/21 09:49:01;;;;;;;;;;;;;;;;;;5032658;28;20069;-74
2023/09/21 09:51:27;;;;;;;;;;;;;;;;;;5049205;28;20049;-73
2023/09/21 09:53:53;;;;;;;;;;;;;;;;;;5031109;28;20053;-73
2023/09/21 09:56:19;;;;;;;;;;;;;;;;;;5033088;28;20029;-75
2023/09/21 09:58:47;;;;;;;;;;;;;;;;;;5031278;28;20470;-73
2023/09/21 10:01:14;;;;;;;;;;;;;;;;;;5032329;28;20059;-75
2023/09/21 10:03:40;;;;;;;;;;;;;;;;;;5032687;28;20009;-72
2023/09/21 10:06:09;;;;;;;;;;;;;;;;;;5030705;28;20589;-73
2023/09/21 10:08:38;;;;;;;;;;;;;;;;;;5033427;28;20045;-73
2023/09/21 10:11:05;;;;;;;;;;;;;;;;;;5036505;28;20032;-73
2023/09/21 10:13:30;;;;;;;;;;;;;;;;;;5050864;28;20072;-74
2023/09/21 10:15:57;;;;;;;;;;;;;;;;;;5050662;28;20088;-73
2023/09/21 10:18:23;;;;;;;;;;;;;;;;;;5046007;28;19986;-73
2023/09/21 10:20:49;;;;;;;;;;;;;;;;;;5031408;28;20039;-73
2023/09/21 10:23:18;;;;;;;;;;;;;;;;;;5031185;28;20092;-72
2023/09/21 10:25:44;;;;;;;;;;;;;;;;;;5033941;28;20046;-74
2023/09/21 10:28:10;;;;;;;;;;;;;;;;;;5053975;28;19989;-73
2023/09/21 10:30:37;;;;;;;;;;;;;;;;;;5043117;28;20349;-72
2023/09/21 10:33:04;;;;;;;;;;;;;;;;;;5048092;28;19990;-72
2023/09/21 10:35:30;;;;;;;;;;;;;;;;;;5052828;28;20010;-73
2023/09/21 10:37:56;;;;;;;;;;;;;;;;;;5046366;28;19997;-72
2023/09/21 10:40:26;;;;;;;;;;;;;;;;;;5054677;28;20044;-72
2023/09/21 10:42:52;;;;;;;;;;;;;;;;;;5039477;28;19994;-72
2023/09/21 10:45:18;;;;;;;;;;;;;;;;;;5034620;28;20485;-73
2023/09/21 10:47:44;;;;;;;;;;;;;;;;;;5035834;28;20037;-73
2023/09/21 10:50:10;;;;;;;;;;;;;;;;;;5034351;28;20438;-73
2023/09/21 10:52:36;;;;;;;;;;;;;;;;;;5038404;28;20080;-73
2023/09/21 10:55:04;;;;;;;;;;;;;;;;;;5054077;28;20485;-72
2023/09/21 10:57:31;;;;;;;;;;;;;;;;;;5046567;28;19986;-72
2023/09/21 11:00:00;;;;;;;;;;;;;;;;;;5040821;28;20355;-72
2023/09/21 11:02:26;;;;;;;;;;;;;;;;;;5053888;28;20044;-73
2023/09/21 11:04:52;;;;;;;;;;;;;;;;;;5052538;28;20009;-73
2023/09/21 11:07:18;;;;;;;;;;;;;;;;;;5039253;28;19990;-73
2023/09/21 11:09:44;;;;;;;;;;;;;;;;;;5042322;28;19982;-72
2023/09/21 11:12:13;;;;;;;;;;;;;;;;;;5053820;28;19990;-73
2023/09/21 11:14:39;;;;;;;;;;;;;;;;;;5048715;28;20017;-73
2023/09/21 11:17:05;;;;;;;;;;;;;;;;;;5051278;28;19989;-74
2023/09/21 11:19:31;;;;;;;;;;;;;;;;;;5044073;28;19990;-72
2023/09/21 11:21:57;;;;;;;;;;;;;;;;;;5033888;28;19986;-72
2023/09/21 11:24:23;;;;;;;;;;;;;;;;;;5037512;28;19986;-73
2023/09/21 11:26:49;;;;;;;;;;;;;;;;;;5052029;28;20336;-73
2023/09/21 11:29:16;;;;;;;;;;;;;;;;;;5052050;28;20024;-73
2023/09/21 11:31:42;;;;;;;;;;;;;;;;;;5053577;28;20040;-73
2023/09/21 11:34:08;;;;;;;;;;;;;;;;;;5045526;28;20049;-73
2023/09/21 11:36:34;;;;;;;;;;;;;;;;;;5033316;28;19986;-73
2023/09/21 11:39:01;;;;;;;;;;;;;;;;;;5033634;28;19990;-75
2023/09/21 11:41:27;;;;;;;;;;;;;;;;;;5034901;28;20462;-73
2023/09/21 11:43:53;;;;;;;;;;;;;;;;;;5033275;28;20064;-72
2023/09/21 11:46:19;;;;;;;;;;;;;;;;;;5038875;28;19990;-73
2023/09/21 11:48:45;;;;;;;;;;;;;;;;;;5033569;28;19993;-73
2023/09/21 11:51:11;;;;;;;;;;;;;;;;;;5034744;28;20030;-73
2023/09/21 11:53:39;;;;;;;;;;;;;;;;;;5033234;28;20013;-72
2023/09/21 11:56:05;;;;;;;;;;;;;;;;;;5039866;28;19994;-72
2023/09/21 11:58:31;;;;;;;;;;;;;;;;;;5036310;28;19990;-72
2023/09/21 12:03:33;;;;;;;;;;;;;;;;;;5040629;28;20065;-71
2023/09/21 12:05:59;;;;;;;;;;;;;;;;;;5034801;28;20013;-71
2023/09/21 12:08:25;;;;;;;;;;;;;;;;;;5040798;28;20354;-72
2023/09/21 12:10:52;;;;;;;;;;;;;;;;;;5033127;28;19993;-72
2023/09/21 12:13:18;;;;;;;;;;;;;;;;;;5032622;28;20326;-72
2023/09/21 12:15:44;;;;;;;;;;;;;;;;;;5042469;28;19997;-72
2023/09/21 12:18:10;;;;;;;;;;;;;;;;;;5032369;28;19997;-71
2023/09/21 12:20:36;;;;;;;;;;;;;;;;;;5037908;28;19986;-72
2023/09/21 12:23:05;;;;;;;;;;;;;;;;;;5032694;28;19986;-73
2023/09/21 12:25:31;;;;;;;;;;;;;;;;;;5033024;28;20370;-72
2023/09/21 12:27:57;;;;;;;;;;;;;;;;;;5032745;28;19986;-73
2023/09/21 12:30:23;;;;;;;;;;;;;;;;;;5033151;28;20008;-73
2023/09/21 12:32:49;;;;;;;;;;;;;;;;;;5045231;28;19986;-73
2023/09/21 12:35:17;;;;;;;;;;;;;;;;;;5043209;28;20014;-73
2023/09/21 12:37:44;;;;;;;;;;;;;;;;;;5045598;28;19990;-71
2023/09/21 12:40:14;;;;;;;;;;;;;;;;;;5050796;28;20088;-71
2023/09/21 12:42:42;;;;;;;;;;;;;;;;;;5033426;28;20030;-70
2023/09/21 12:45:08;;;;;;;;;;;;;;;;;;5033649;28;20473;-71
2023/09/21 12:47:34;;;;;;;;;;;;;;;;;;5032142;28;19986;-72
2023/09/21 12:50:00;;;;;;;;;;;;;;;;;;5044977;28;19993;-73
2023/09/21 12:52:26;;;;;;;;;;;;;;;;;;5049845;28;20048;-72
2023/09/21 12:54:53;;;;;;;;;;;;;;;;;;5032077;28;20041;-72
2023/09/21 12:57:19;;;;;;;;;;;;;;;;;;5032186;28;19986;-72
2023/09/21 12:59:45;;;;;;;;;;;;;;;;;;5035082;28;19997;-72
2023/09/21 13:02:12;;;;;;;;;;;;;;;;;;5031811;28;19986;-72
2023/09/21 13:04:38;;;;;;;;;;;;;;;;;;5031848;28;20030;-72
2023/09/21 13:07:04;;;;;;;;;;;;;;;;;;5033212;28;20021;-71
2023/09/21 13:09:30;;;;;;;;;;;;;;;;;;5033978;28;20025;-73
2023/09/21 13:11:55;;;;;;;;;;;;;;;;;;5031611;28;20438;-76
2023/09/21 13:14:21;;;;;;;;;;;;;;;;;;5031304;28;20101;-75
2023/09/21 13:16:47;;;;;;;;;;;;;;;;;;5045257;28;19994;-77
2023/09/21 13:19:14;;;;;;;;;;;;;;;;;;5035620;28;19986;-76
2023/09/21 13:21:41;;;;;;;;;;;;;;;;;;5049541;28;20507;-75
2023/09/21 13:24:07;;;;;;;;;;;;;;;;;;5051454;28;19985;-75
2023/09/21 13:26:33;;;;;;;;;;;;;;;;;;5044668;28;19986;-76
2023/09/21 13:28:59;;;;;;;;;;;;;;;;;;5036324;28;20049;-76
2023/09/21 13:31:25;;;;;;;;;;;;;;;;;;5035324;28;19982;-75
2023/09/21 13:33:51;;;;;;;;;;;;;;;;;;5040227;28;20060;-76
2023/09/21 13:36:18;;;;;;;;;;;;;;;;;;5043533;28;20405;-74
2023/09/21 13:38:46;;;;;;;;;;;;;;;;;;5050333;28;19993;-76
2023/09/21 13:41:12;;;;;;;;;;;;;;;;;;5051259;28;20053;-75
2023/09/21 13:43:38;;;;;;;;;;;;;;;;;;5051160;28;20021;-75
2023/09/21 13:46:09;;;;;;;;;;;;;;;;;;5051679;28;19989;-75
2023/09/21 13:48:35;;;;;;;;;;;;;;;;;;5051327;28;19993;-75
2023/09/21 13:51:02;;;;;;;;;;;;;;;;;;5051351;28;20338;-75
2023/09/21 13:53:28;;;;;;;;;;;;;;;;;;5051129;28;20479;-74
2023/09/21 13:55:54;;;;;;;;;;;;;;;;;;5050088;28;19994;-74
2023/09/21 13:58:20;;;;;;;;;;;;;;;;;;5051479;28;20072;-74
2023/09/21 14:00:48;;;;;;;;;;;;;;;;;;5053431;28;20048;-74
2023/09/21 14:03:14;;;;;;;;;;;;;;;;;;5055276;28;20035;-74
2023/09/21 14:05:40;;;;;;;;;;;;;;;;;;5055210;28;20002;-73
2023/09/21 14:08:09;;;;;;;;;;;;;;;;;;5055372;28;20349;-73
2023/09/21 14:10:35;;;;;;;;;;;;;;;;;;5050281;28;19986;-72
2023/09/21 14:13:01;;;;;;;;;;;;;;;;;;5035279;28;20012;-72
2023/09/21 14:15:27;;;;;;;;;;;;;;;;;;5035088;28;20470;-72
2023/09/21 14:17:54;;;;;;;;;;;;;;;;;;5035047;28;19986;-73
2023/09/21 14:20:21;;;;;;;;;;;;;;;;;;5035243;28;19986;-73
2023/09/21 14:22:47;;;;;;;;;;;;;;;;;;5034949;28;20454;-73
2023/09/21 14:25:14;;;;;;;;;;;;;;;;;;5035039;28;19989;-73
2023/09/21 14:27:40;;;;;;;;;;;;;;;;;;5034835;28;20085;-73
2023/09/21 14:30:06;;;;;;;;;;;;;;;;;;5053900;28;19993;-73
2023/09/21 14:32:32;;;;;;;;;;;;;;;;;;5054880;28;19989;-73
2023/09/21 14:34:58;;;;;;;;;;;;;;;;;;5054647;28;20465;-73
2023/09/21 14:37:26;;;;;;;;;;;;;;;;;;5054738;28;20036;-73
2023/09/21 14:39:53;;;;;;;;;;;;;;;;;;5054828;28;19992;-73
2023/09/21 14:42:19;;;;;;;;;;;;;;;;;;5051331;28;19990;-73
2023/09/21 14:44:45;;;;;;;;;;;;;;;;;;5053380;28;20051;-73
2023/09/21 14:47:11;;;;;;;;;;;;;;;;;;5042731;28;20036;-74
2023/09/21 14:49:37;;;;;;;;;;;;;;;;;;5039371;28;20029;-73
2023/09/21 14:52:03;;;;;;;;;;;;;;;;;;5038471;28;20180;-74
2023/09/21 14:54:29;;;;;;;;;;;;;;;;;;5040752;28;20017;-73
2023/09/21 14:56:55;;;;;;;;;;;;;;;;;;5033968;28;20388;-73
2023/09/21 14:59:21;;;;;;;;;;;;;;;;;;5034370;28;20029;-73
2023/09/21 15:01:48;;;;;;;;;;;;;;;;;;5042748;28;19994;-72
2023/09/21 15:04:15;;;;;;;;;;;;;;;;;;5044279;28;19992;-73
2023/09/21 15:06:41;;;;;;;;;;;;;;;;;;5052172;28;20002;-74
2023/09/21 15:09:09;;;;;;;;;;;;;;;;;;5053771;28;20012;-74
2023/09/21 15:11:35;;;;;;;;;;;;;;;;;;5044130;28;19986;-74
2023/09/21 15:14:01;;;;;;;;;;;;;;;;;;5035352;28;20014;-76
2023/09/21 15:16:26;;;;;;;;;;;;;;;;;;5033539;28;20029;-74
2023/09/21 15:18:52;;;;;;;;;;;;;;;;;;5033996;28;19994;-74
2023/09/21 15:21:19;;;;;;;;;;;;;;;;;;5041225;28;19997;-74
2023/09/21 15:23:45;;;;;;;;;;;;;;;;;;5053845;28;19989;-74
2023/09/21 15:26:11;;;;;;;;;;;;;;;;;;5035768;28;20085;-74
2023/09/21 15:28:37;;;;;;;;;;;;;;;;;;5051878;28;19986;-76
2023/09/21 15:31:03;;;;;;;;;;;;;;;;;;5035306;28;20001;-75
2023/09/21 15:33:29;;;;;;;;;;;;;;;;;;5033622;28;20089;-74
2023/09/21 15:35:55;;;;;;;;;;;;;;;;;;5033475;28;20081;-72
2023/09/21 15:38:21;;;;;;;;;;;;;;;;;;5046274;28;20342;-71
2023/09/21 15:40:47;;;;;;;;;;;;;;;;;;5053758;28;19985;-73
2023/09/21 15:43:13;;;;;;;;;;;;;;;;;;5051869;28;20108;-72
2023/09/21 15:45:39;;;;;;;;;;;;;;;;;;5035881;28;20105;-71
2023/09/21 15:48:05;;;;;;;;;;;;;;;;;;5035816;28;20076;-71
2023/09/21 15:50:31;;;;;;;;;;;;;;;;;;5048646;28;19986;-69
2023/09/21 15:52:57;;;;;;;;;;;;;;;;;;5039911;28;19986;-70
2023/09/21 15:55:23;;;;;;;;;;;;;;;;;;5049418;28;20374;-79
2023/09/21 15:57:49;;;;;;;;;;;;;;;;;;5049682;28;20081;-77
2023/09/21 16:00:15;;;;;;;;;;;;;;;;;;5052917;28;19985;-73
2023/09/21 16:02:41;;;;;;;;;;;;;;;;;;5046635;28;19989;-73
2023/09/21 16:05:07;;;;;;;;;;;;;;;;;;5052930;28;20006;-71
2023/09/21 16:07:34;;;;;;;;;;;;;;;;;;5039917;28;20040;-72
2023/09/21 16:10:00;;;;;;;;;;;;;;;;;;5032961;28;19986;-74
2023/09/21 16:12:26;;;;;;;;;;;;;;;;;;5032964;28;20040;-71
2023/09/21 16:14:52;;;;;;;;;;;;;;;;;;5036482;28;20026;-71
2023/09/21 16:17:18;;;;;;;;;;;;;;;;;;5032947;28;19994;-72
2023/09/21 16:19:44;;;;;;;;;;;;;;;;;;5032382;28;19986;-72
2023/09/21 16:22:10;;;;;;;;;;;;;;;;;;5036232;28;19990;-75
2023/09/21 16:24:36;;;;;;;;;;;;;;;;;;5031035;28;20339;-74
2023/09/21 16:27:02;;;;;;;;;;;;;;;;;;5032654;28;19986;-74
2023/09/21 16:29:28;;;;;;;;;;;;;;;;;;5041718;28;19992;-74
2023/09/21 16:31:53;;;;;;;;;;;;;;;;;;5052384;28;19997;-75
2023/09/21 16:34:19;;;;;;;;;;;;;;;;;;5052298;28;20103;-72
2023/09/21 16:36:45;;;;;;;;;;;;;;;;;;5033025;28;20079;-75
2023/09/21 16:39:14;;;;;;;;;;;;;;;;;;5032162;28;19986;-73
2023/09/21 16:41:40;;;;;;;;;;;;;;;;;;5032138;28;19986;-76
2023/09/21 16:44:06;;;;;;;;;;;;;;;;;;5032213;28;20101;-71
2023/09/21 16:46:32;;;;;;;;;;;;;;;;;;5032553;28;19994;-73